createdAt,value
2024-02-14T00:00:52.701Z,3.06
2024-02-14T00:03:19.922Z,3.26
2024-02-14T00:05:46.647Z,3.33
2024-02-14T00:08:16.023Z,3.33
2024-02-14T00:10:44.670Z,3.19
2024-02-14T00:13:11.996Z,3.30
2024-02-14T00:15:38.754Z,3.27
2024-02-14T00:18:05.866Z,3.32
2024-02-14T00:20:33.724Z,3.43
2024-02-14T00:23:00.524Z,3.24
2024-02-14T00:25:27.193Z,3.30
2024-02-14T00:27:55.345Z,3.36
2024-02-14T00:30:24.248Z,3.41
2024-02-14T00:32:51.613Z,3.43
2024-02-14T00:35:18.515Z,3.35
2024-02-14T00:37:45.294Z,3.44
2024-02-14T00:40:12.644Z,3.42
2024-02-14T00:42:39.335Z,3.42
2024-02-14T00:45:09.122Z,3.12
2024-02-14T00:47:36.449Z,3.21
2024-02-14T00:50:04.068Z,3.14
2024-02-14T00:52:30.955Z,3.14
2024-02-14T00:54:58.397Z,3.23
2024-02-14T00:57:28.016Z,3.37
2024-02-14T00:59:54.756Z,3.34
2024-02-14T01:02:22.509Z,3.51
2024-02-14T01:04:49.254Z,3.45
2024-02-14T01:07:15.926Z,3.60
2024-02-14T01:09:42.720Z,3.42
2024-02-14T01:12:09.532Z,3.51
2024-02-14T01:14:36.324Z,3.37
2024-02-14T01:17:04.899Z,3.49
2024-02-14T01:19:31.781Z,3.43
2024-02-14T01:21:58.451Z,3.55
2024-02-14T01:24:28.059Z,3.58
2024-02-14T01:26:56.340Z,3.57
2024-02-14T01:29:24.429Z,3.67
2024-02-14T01:31:51.528Z,3.61
2024-02-14T01:34:18.677Z,3.47
2024-02-14T01:36:45.722Z,3.55
2024-02-14T01:39:12.609Z,3.72
2024-02-14T01:41:39.870Z,3.46
2024-02-14T01:44:06.622Z,3.49
2024-02-14T01:46:33.399Z,3.52
2024-02-14T01:49:00.454Z,3.56
2024-02-14T01:51:27.375Z,3.41
2024-02-14T01:53:54.249Z,3.45
2024-02-14T01:56:21.023Z,3.49
2024-02-14T01:58:47.716Z,3.32
2024-02-14T02:01:14.486Z,3.52
2024-02-14T02:03:41.234Z,3.46
2024-02-14T02:06:08.260Z,3.51
2024-02-14T02:08:35.181Z,3.52
2024-02-14T02:11:01.889Z,3.51
2024-02-14T02:13:28.702Z,3.50
2024-02-14T02:15:55.416Z,3.59
2024-02-14T02:18:22.434Z,3.48
2024-02-14T02:20:49.468Z,3.53
2024-02-14T02:23:16.375Z,3.49
2024-02-14T02:25:43.722Z,3.53
2024-02-14T02:28:10.583Z,3.58
2024-02-14T02:30:37.740Z,3.59
2024-02-14T02:33:05.588Z,3.61
2024-02-14T02:35:32.375Z,3.66
2024-02-14T02:37:59.190Z,3.99
2024-02-14T02:40:26.264Z,3.71
2024-02-14T02:42:53.016Z,3.57
2024-02-14T02:45:19.843Z,3.45
2024-02-14T02:47:46.632Z,3.47
2024-02-14T02:50:13.438Z,3.64
2024-02-14T02:52:43.107Z,3.83
2024-02-14T02:55:10.077Z,3.92
2024-02-14T02:57:38.156Z,3.70
2024-02-14T03:00:06.214Z,3.65
2024-02-14T03:02:33.074Z,3.51
2024-02-14T03:05:00.209Z,3.54
2024-02-14T03:07:27.857Z,3.55
2024-02-14T03:09:54.499Z,3.39
2024-02-14T03:12:22.757Z,3.28
2024-02-14T03:14:50.793Z,3.56
2024-02-14T03:17:17.995Z,3.75
2024-02-14T03:19:44.782Z,3.74
2024-02-14T03:22:11.614Z,3.72
2024-02-14T03:24:38.884Z,3.47
2024-02-14T03:27:06.608Z,3.15
2024-02-14T03:29:33.669Z,3.33
2024-02-14T03:32:05.314Z,3.18
2024-02-14T03:34:34.988Z,3.26
2024-02-14T03:37:03.377Z,3.16
2024-02-14T03:39:30.855Z,3.11
2024-02-14T03:41:57.684Z,3.06
2024-02-14T03:44:24.473Z,3.13
2024-02-14T03:46:51.300Z,3.15
2024-02-14T03:49:18.412Z,3.22
2024-02-14T03:51:45.253Z,3.12
2024-02-14T03:54:13.213Z,3.41
2024-02-14T03:56:40.052Z,3.30
2024-02-14T03:59:07.257Z,3.29
2024-02-14T04:01:34.302Z,3.42
2024-02-14T04:04:01.128Z,3.60
2024-02-14T04:06:28.360Z,3.87
2024-02-14T04:08:55.289Z,3.97
2024-02-14T04:11:22.091Z,3.71
2024-02-14T04:13:48.743Z,3.48
2024-02-14T04:16:15.360Z,3.58
2024-02-14T04:18:43.965Z,3.38
2024-02-14T04:21:11.226Z,3.25
2024-02-14T04:23:38.203Z,3.19
2024-02-14T04:26:05.090Z,3.47
2024-02-14T04:28:31.726Z,3.39
2024-02-14T04:30:59.007Z,3.27
2024-02-14T04:33:26.824Z,3.38
2024-02-14T04:35:53.613Z,3.47
2024-02-14T04:38:20.975Z,3.54
2024-02-14T04:40:47.863Z,3.43
2024-02-14T04:43:14.623Z,3.40
2024-02-14T04:45:41.404Z,3.48
2024-02-14T04:48:09.060Z,3.44
2024-02-14T04:50:36.113Z,3.57
2024-02-14T04:53:02.851Z,3.72
2024-02-14T04:55:30.487Z,3.57
2024-02-14T04:57:57.248Z,3.67
2024-02-14T05:00:25.160Z,3.69
2024-02-14T05:02:52.243Z,3.74
2024-02-14T05:05:21.542Z,3.72
2024-02-14T05:07:48.441Z,3.44
2024-02-14T05:10:15.196Z,3.26
2024-02-14T05:12:42.573Z,3.26
2024-02-14T05:15:10.750Z,3.14
2024-02-14T05:17:37.722Z,3.07
2024-02-14T05:20:10.318Z,3.22
2024-02-14T05:22:38.850Z,3.52
2024-02-14T05:25:06.154Z,3.79
2024-02-14T05:27:32.885Z,3.75
2024-02-14T05:29:59.611Z,3.73
2024-02-14T05:32:26.394Z,4.02
2024-02-14T05:34:53.125Z,4.20
2024-02-14T05:37:19.896Z,3.85
2024-02-14T05:39:46.634Z,4.09
2024-02-14T05:42:13.472Z,3.67
2024-02-14T05:44:41.628Z,3.76
2024-02-14T05:47:08.455Z,3.60
2024-02-14T05:49:35.318Z,3.84
2024-02-14T05:52:02.113Z,4.04
2024-02-14T05:54:28.855Z,3.72
2024-02-14T05:56:55.595Z,3.61
2024-02-14T05:59:22.413Z,3.95
2024-02-14T06:01:49.049Z,3.61
2024-02-14T06:04:15.826Z,3.48
2024-02-14T06:06:42.559Z,3.43
2024-02-14T06:09:12.718Z,3.88
2024-02-14T06:11:40.342Z,3.66
2024-02-14T06:14:07.894Z,3.67
2024-02-14T06:16:34.812Z,3.53
2024-02-14T06:19:02.147Z,3.81
2024-02-14T06:21:28.938Z,3.68
2024-02-14T06:23:56.060Z,3.67
2024-02-14T06:26:22.796Z,3.77
2024-02-14T06:28:55.343Z,3.74
2024-02-14T06:31:23.391Z,3.75
2024-02-14T06:33:50.309Z,3.68
2024-02-14T06:36:17.167Z,3.47
2024-02-14T06:38:44.609Z,3.55
2024-02-14T06:41:11.477Z,3.48
2024-02-14T06:43:40.270Z,3.68
2024-02-14T06:46:07.257Z,3.60
2024-02-14T06:48:35.309Z,3.77
2024-02-14T06:51:02.307Z,3.88
2024-02-14T06:53:29.206Z,3.95
2024-02-14T06:55:55.895Z,4.11
2024-02-14T06:58:22.772Z,4.45
2024-02-14T07:00:49.513Z,4.52
2024-02-14T07:03:16.482Z,4.33
2024-02-14T07:05:43.462Z,4.36
2024-02-14T07:08:10.374Z,4.32
2024-02-14T07:10:37.425Z,4.51
2024-02-14T07:13:04.454Z,4.45
2024-02-14T07:15:31.211Z,4.18
2024-02-14T07:17:59.711Z,4.25
2024-02-14T07:20:27.976Z,4.56
2024-02-14T07:22:54.755Z,4.62
2024-02-14T07:25:21.495Z,4.42
2024-02-14T07:27:50.596Z,4.36
2024-02-14T07:30:18.235Z,4.27
2024-02-14T07:32:48.136Z,4.26
2024-02-14T07:35:14.977Z,4.29
2024-02-14T07:37:43.458Z,4.35
2024-02-14T07:40:11.340Z,4.40
2024-02-14T07:42:38.038Z,4.50
2024-02-14T07:45:05.258Z,4.53
2024-02-14T07:47:32.165Z,4.72
2024-02-14T07:49:59.539Z,4.73
2024-02-14T07:52:27.166Z,4.76
2024-02-14T07:54:55.335Z,4.80
2024-02-14T07:57:23.556Z,4.86
2024-02-14T07:59:51.822Z,4.88
2024-02-14T08:02:19.181Z,5.03
2024-02-14T08:04:45.908Z,4.72
2024-02-14T08:07:12.700Z,4.81
2024-02-14T08:09:42.168Z,4.39
2024-02-14T08:12:08.937Z,4.29
2024-02-14T08:14:35.797Z,4.22
2024-02-14T08:17:02.627Z,4.44
2024-02-14T08:19:29.525Z,4.31
2024-02-14T08:21:59.125Z,4.31
2024-02-14T08:24:27.269Z,4.25
2024-02-14T08:26:54.500Z,3.96
2024-02-14T08:29:21.927Z,3.96
2024-02-14T08:31:49.111Z,4.04
2024-02-14T08:34:16.104Z,4.05
2024-02-14T08:36:43.652Z,4.06
2024-02-14T08:39:13.368Z,4.02
2024-02-14T08:41:42.273Z,3.84
2024-02-14T08:44:09.000Z,3.86
2024-02-14T08:46:35.699Z,3.81
2024-02-14T08:49:03.845Z,3.76
2024-02-14T08:51:30.844Z,3.91
2024-02-14T08:54:00.659Z,4.12
2024-02-14T08:56:27.675Z,4.27
2024-02-14T08:58:54.372Z,3.99
2024-02-14T09:01:23.078Z,3.99
2024-02-14T09:03:50.903Z,3.99
2024-02-14T09:06:21.120Z,3.80
2024-02-14T09:08:48.398Z,3.75
2024-02-14T09:11:15.252Z,3.94
2024-02-14T09:13:42.100Z,4.13
2024-02-14T09:16:09.627Z,3.91
2024-02-14T09:18:36.564Z,4.01
2024-02-14T09:21:06.559Z,4.21
2024-02-14T09:23:34.189Z,3.72
2024-02-14T09:26:00.970Z,3.76
2024-02-14T09:28:27.685Z,4.09
2024-02-14T09:30:55.939Z,4.06
2024-02-14T09:33:23.130Z,3.73
2024-02-14T09:35:51.566Z,4.11
2024-02-14T09:38:18.301Z,4.12
2024-02-14T09:40:45.128Z,4.26
2024-02-14T09:43:19.809Z,4.18
2024-02-14T09:45:46.429Z,4.04
2024-02-14T09:48:14.197Z,3.90
2024-02-14T09:50:41.544Z,3.88
2024-02-14T09:53:10.148Z,3.76
2024-02-14T09:55:39.732Z,3.98
2024-02-14T09:58:07.868Z,3.96
2024-02-14T10:00:34.762Z,3.68
2024-02-14T10:03:04.582Z,3.53
2024-02-14T10:05:31.306Z,3.53
2024-02-14T10:07:58.724Z,3.64
2024-02-14T10:10:26.341Z,3.76
2024-02-14T10:12:53.244Z,3.66
2024-02-14T10:15:20.060Z,3.45
2024-02-14T10:17:46.856Z,3.25
2024-02-14T10:20:18.126Z,3.29
2024-02-14T10:22:45.635Z,3.46
2024-02-14T10:25:12.960Z,3.26
2024-02-14T10:27:40.020Z,3.19
2024-02-14T10:30:10.982Z,3.25
2024-02-14T10:32:38.813Z,3.46
2024-02-14T10:35:10.238Z,3.60
2024-02-14T10:37:37.476Z,3.38
2024-02-14T10:40:05.350Z,3.31
2024-02-14T10:42:32.633Z,3.50
2024-02-14T10:45:00.397Z,3.54
2024-02-14T10:47:36.959Z,3.50
2024-02-14T10:50:06.430Z,3.15
2024-02-14T10:52:36.948Z,3.26
2024-02-14T10:55:06.891Z,3.14
2024-02-14T10:57:33.751Z,3.18
2024-02-14T11:00:06.265Z,3.32
2024-02-14T11:02:33.978Z,2.76
2024-02-14T11:05:01.792Z,2.84
2024-02-14T11:07:29.862Z,2.80
2024-02-14T11:10:10.954Z,2.97
2024-02-14T11:12:40.332Z,3.08
2024-02-14T11:15:36.191Z,3.24
2024-02-14T11:18:06.443Z,3.45
2024-02-14T11:20:34.389Z,3.12
2024-02-14T11:23:07.164Z,3.00
2024-02-14T11:25:37.897Z,3.11
2024-02-14T11:28:17.762Z,2.92
2024-02-14T11:30:45.143Z,2.90
2024-02-14T11:33:14.148Z,2.95
2024-02-14T11:35:44.059Z,3.09
2024-02-14T11:38:10.915Z,3.13
2024-02-14T11:40:40.349Z,2.78
2024-02-14T11:43:15.139Z,2.62
2024-02-14T11:45:46.550Z,3.03
2024-02-14T11:48:14.191Z,3.14
2024-02-14T11:50:42.251Z,3.26
2024-02-14T11:53:10.923Z,3.03
2024-02-14T11:55:40.758Z,2.94
2024-02-14T11:58:14.381Z,2.98
2024-02-14T12:00:41.840Z,3.17
2024-02-14T12:03:11.208Z,3.25
2024-02-14T12:05:38.394Z,3.05
2024-02-14T12:08:06.875Z,2.72
2024-02-14T12:10:33.932Z,2.56
2024-02-14T12:13:09.898Z,2.63
2024-02-14T12:15:40.721Z,2.69
2024-02-14T12:18:07.986Z,2.82
2024-02-14T12:20:35.242Z,2.88
2024-02-14T12:23:01.990Z,2.87
2024-02-14T12:25:28.765Z,2.68
2024-02-14T12:27:55.524Z,3.04
2024-02-14T12:30:23.191Z,3.13
2024-02-14T12:33:00.726Z,3.25
2024-02-14T12:35:27.748Z,3.31
2024-02-14T12:37:55.088Z,3.35
2024-02-14T12:40:21.910Z,3.45
2024-02-14T12:42:48.636Z,3.57
2024-02-14T12:45:16.591Z,3.29
2024-02-14T12:47:44.508Z,3.36
2024-02-14T12:50:11.477Z,3.53
2024-02-14T12:52:38.526Z,3.38
2024-02-14T12:55:05.783Z,3.41
2024-02-14T12:57:32.523Z,3.62
2024-02-14T12:59:59.336Z,3.73
2024-02-14T13:02:26.081Z,3.71
2024-02-14T13:04:52.921Z,3.45
2024-02-14T13:07:19.650Z,3.54
2024-02-14T13:09:46.792Z,3.35
2024-02-14T13:12:13.504Z,3.39
2024-02-14T13:14:41.206Z,3.45
2024-02-14T13:17:08.019Z,3.29
2024-02-14T13:19:35.068Z,3.58
2024-02-14T13:22:01.819Z,3.42
2024-02-14T13:24:29.600Z,3.13
2024-02-14T13:26:58.893Z,3.40
2024-02-14T13:29:27.585Z,3.28
2024-02-14T13:31:54.274Z,3.27
2024-02-14T13:34:21.516Z,3.35
2024-02-14T13:36:48.539Z,2.96
2024-02-14T13:39:15.809Z,3.00
2024-02-14T13:41:45.500Z,3.05
2024-02-14T13:44:12.854Z,3.26
2024-02-14T13:46:40.080Z,3.41
2024-02-14T13:49:07.484Z,3.28
2024-02-14T13:51:34.487Z,3.53
2024-02-14T13:54:01.334Z,3.83
2024-02-14T13:56:27.981Z,3.78
2024-02-14T13:58:54.733Z,3.84
2024-02-14T14:01:21.510Z,3.73
2024-02-14T14:03:49.620Z,3.54
2024-02-14T14:06:16.444Z,3.67
2024-02-14T14:08:43.122Z,3.64
2024-02-14T14:11:10.211Z,3.55
2024-02-14T14:13:36.927Z,3.69
2024-02-14T14:16:06.151Z,3.64
2024-02-14T14:18:33.212Z,3.54
2024-02-14T14:21:00.051Z,3.43
2024-02-14T14:23:26.768Z,3.41
2024-02-14T14:25:53.536Z,3.49
2024-02-14T14:28:25.640Z,3.40
2024-02-14T14:30:54.350Z,3.53
2024-02-14T14:33:21.853Z,3.61
2024-02-14T14:35:51.702Z,3.68
2024-02-14T14:38:18.508Z,3.53
2024-02-14T14:40:46.763Z,3.58
2024-02-14T14:43:13.988Z,3.45
2024-02-14T14:45:42.356Z,3.66
2024-02-14T14:48:10.230Z,3.62
2024-02-14T14:50:38.146Z,3.65
2024-02-14T14:53:07.113Z,3.75
2024-02-14T14:55:58.309Z,3.46
2024-02-14T14:58:28.504Z,3.53
2024-02-14T15:00:56.420Z,3.86
2024-02-14T15:03:23.767Z,4.04
2024-02-14T15:05:50.613Z,3.81
2024-02-14T15:08:24.648Z,3.84
2024-02-14T15:10:53.530Z,3.60
2024-02-14T15:13:20.677Z,3.81
2024-02-14T15:15:47.337Z,3.79
2024-02-14T15:18:14.336Z,3.83
2024-02-14T15:20:41.399Z,3.71
2024-02-14T15:23:08.720Z,3.85
2024-02-14T15:25:35.898Z,3.74
2024-02-14T15:28:10.500Z,3.99
2024-02-14T15:30:55.806Z,3.89
2024-02-14T15:33:24.082Z,3.76
2024-02-14T15:35:52.102Z,3.49
2024-02-14T15:38:22.375Z,3.60
2024-02-14T15:40:51.724Z,3.69
2024-02-14T15:43:18.457Z,3.77
2024-02-14T15:45:45.121Z,3.89
2024-02-14T15:48:14.190Z,3.79
2024-02-14T15:50:40.932Z,3.79
2024-02-14T15:53:07.764Z,3.78
2024-02-14T15:55:34.479Z,3.79
2024-02-14T15:58:01.158Z,3.83
2024-02-14T16:00:28.204Z,3.77
2024-02-14T16:02:55.016Z,3.71
2024-02-14T16:05:24.562Z,3.92
2024-02-14T16:07:51.273Z,3.75
2024-02-14T16:10:18.001Z,3.84
2024-02-14T16:12:45.552Z,3.22
2024-02-14T16:15:12.799Z,3.19
2024-02-14T16:17:42.667Z,3.42
2024-02-14T16:20:10.053Z,3.52
2024-02-14T16:22:37.025Z,3.54
2024-02-14T16:25:04.460Z,3.46
2024-02-14T16:27:31.546Z,3.56
2024-02-14T16:30:02.214Z,3.82
2024-02-14T16:32:29.077Z,4.01
2024-02-14T16:34:55.888Z,3.72
2024-02-14T16:37:23.023Z,3.80
2024-02-14T16:39:50.276Z,3.88
2024-02-14T16:42:17.873Z,3.90
2024-02-14T16:44:45.094Z,3.88
2024-02-14T16:47:12.310Z,3.82
2024-02-14T16:49:39.210Z,4.00
2024-02-14T16:52:09.010Z,4.14
2024-02-14T16:54:35.823Z,3.92
2024-02-14T16:57:15.871Z,3.87
2024-02-14T16:59:46.997Z,3.79
2024-02-14T17:02:16.916Z,3.62
2024-02-14T17:04:44.065Z,3.54
2024-02-14T17:07:16.559Z,3.47
2024-02-14T17:09:43.982Z,3.70
2024-02-14T17:12:11.062Z,3.58
2024-02-14T17:14:40.860Z,3.56
2024-02-14T17:17:09.738Z,3.66
2024-02-14T17:19:36.526Z,3.90
2024-02-14T17:22:13.448Z,3.82
2024-02-14T17:24:46.545Z,3.82
2024-02-14T17:27:13.706Z,3.52
2024-02-14T17:29:40.463Z,3.41
2024-02-14T17:32:12.416Z,3.57
2024-02-14T17:34:43.901Z,3.46
2024-02-14T17:37:10.742Z,3.54
2024-02-14T17:39:37.583Z,3.55
2024-02-14T17:42:04.484Z,3.38
2024-02-14T17:44:31.181Z,3.56
2024-02-14T17:46:57.941Z,3.64
2024-02-14T17:49:24.982Z,3.47
2024-02-14T17:51:53.056Z,3.67
2024-02-14T17:54:20.468Z,3.43
2024-02-14T17:56:47.274Z,3.50
2024-02-14T17:59:15.555Z,3.23
2024-02-14T18:01:45.793Z,3.39
2024-02-14T18:04:12.649Z,3.63
2024-02-14T18:06:39.432Z,3.70
2024-02-14T18:09:08.362Z,3.84
2024-02-14T18:11:35.754Z,3.84
2024-02-14T18:14:02.421Z,3.84
2024-02-14T18:16:29.216Z,3.70
2024-02-14T18:18:56.320Z,3.70
2024-02-14T18:21:23.316Z,3.66
2024-02-14T18:23:51.271Z,3.77
2024-02-14T18:26:18.272Z,3.56
2024-02-14T18:28:45.111Z,3.58
2024-02-14T18:31:14.386Z,3.46
2024-02-14T18:33:42.678Z,3.30
2024-02-14T18:36:09.833Z,3.43
2024-02-14T18:38:37.406Z,3.59
2024-02-14T18:41:04.227Z,3.70
2024-02-14T18:43:32.668Z,3.59
2024-02-14T18:45:59.389Z,3.71
2024-02-14T18:48:26.185Z,3.78
2024-02-14T18:50:53.520Z,3.87
2024-02-14T18:53:20.402Z,3.97
2024-02-14T18:55:47.043Z,3.67
2024-02-14T18:58:13.764Z,3.50
2024-02-14T19:00:41.018Z,3.65
2024-02-14T19:03:07.889Z,3.74
2024-02-14T19:05:34.660Z,3.86
2024-02-14T19:08:01.336Z,4.01
2024-02-14T19:10:28.092Z,3.83
2024-02-14T19:12:54.865Z,3.55
2024-02-14T19:15:21.862Z,3.71
2024-02-14T19:17:49.726Z,3.71
2024-02-14T19:20:16.772Z,3.69
2024-02-14T19:22:43.697Z,3.39
2024-02-14T19:25:10.465Z,3.14
2024-02-14T19:27:38.449Z,2.90
2024-02-14T19:30:05.934Z,3.02
2024-02-14T19:32:37.139Z,3.39
2024-02-14T19:35:04.570Z,3.44
2024-02-14T19:37:32.492Z,3.58
2024-02-14T19:39:59.205Z,3.29
2024-02-14T19:42:26.026Z,3.36
2024-02-14T19:44:53.616Z,3.43
2024-02-14T19:47:20.477Z,3.38
2024-02-14T19:49:47.770Z,3.65
2024-02-14T19:52:14.637Z,3.37
2024-02-14T19:54:41.654Z,3.46
2024-02-14T19:57:09.429Z,3.46
2024-02-14T19:59:36.167Z,3.35
2024-02-14T20:02:04.978Z,3.49
2024-02-14T20:04:32.991Z,3.52
2024-02-14T20:07:00.033Z,3.55
2024-02-14T20:09:26.880Z,3.55
2024-02-14T20:11:53.712Z,3.69
2024-02-14T20:14:20.862Z,3.53
2024-02-14T20:16:47.804Z,3.60
2024-02-14T20:19:54.724Z,3.59
2024-02-14T20:22:22.315Z,3.58
2024-02-14T20:24:49.034Z,3.76
2024-02-14T20:27:16.382Z,3.69
2024-02-14T20:29:44.446Z,3.57
2024-02-14T20:32:11.184Z,3.67
2024-02-14T20:34:38.250Z,3.83
2024-02-14T20:37:09.518Z,3.55
2024-02-14T20:39:36.533Z,3.44
2024-02-14T20:42:03.292Z,3.46
2024-02-14T20:44:30.096Z,3.43
2024-02-14T20:46:57.684Z,3.33
2024-02-14T20:49:24.774Z,3.43
2024-02-14T20:51:51.617Z,3.58
2024-02-14T20:54:18.470Z,3.80
2024-02-14T20:56:45.187Z,3.52
2024-02-14T20:59:16.625Z,3.56
2024-02-14T21:01:43.881Z,3.09
2024-02-14T21:04:10.561Z,2.98
2024-02-14T21:06:38.165Z,3.17
2024-02-14T21:09:05.249Z,3.34
2024-02-14T21:11:32.511Z,3.61
2024-02-14T21:13:59.175Z,3.11
2024-02-14T21:16:27.249Z,2.94
2024-02-14T21:18:54.458Z,2.91
2024-02-14T21:21:21.680Z,3.05
2024-02-14T21:23:48.451Z,3.18
2024-02-14T21:26:15.215Z,3.57
2024-02-14T21:28:42.025Z,3.86
2024-02-14T21:31:08.678Z,3.37
2024-02-14T21:33:35.675Z,3.02
2024-02-14T21:36:02.492Z,3.20
2024-02-14T21:38:29.253Z,2.75
2024-02-14T21:40:56.156Z,2.90
2024-02-14T21:43:23.035Z,3.26
2024-02-14T21:45:49.762Z,3.35
2024-02-14T21:48:19.548Z,3.19
2024-02-14T21:50:46.540Z,2.92
2024-02-14T21:53:13.337Z,2.89
2024-02-14T21:55:40.138Z,3.31
2024-02-14T21:58:07.175Z,2.93
2024-02-14T22:00:34.123Z,2.96
2024-02-14T22:03:01.159Z,3.15
2024-02-14T22:05:29.295Z,3.35
2024-02-14T22:07:56.503Z,3.34
2024-02-14T22:10:23.460Z,3.30
2024-02-14T22:12:50.326Z,3.33
2024-02-14T22:15:17.100Z,3.37
2024-02-14T22:17:43.893Z,3.25
2024-02-14T22:20:11.840Z,3.25
2024-02-14T22:22:42.041Z,3.21
2024-02-14T22:25:09.348Z,3.38
2024-02-14T22:27:36.297Z,3.27
2024-02-14T22:30:06.485Z,3.03
2024-02-14T22:32:34.140Z,3.04
2024-02-14T22:35:00.988Z,3.21
2024-02-14T22:37:27.811Z,3.29
2024-02-14T22:39:54.466Z,3.08
2024-02-14T22:42:21.281Z,3.38
2024-02-14T22:44:48.018Z,3.31
2024-02-14T22:47:14.726Z,3.23
2024-02-14T22:49:42.537Z,3.28
2024-02-14T22:52:09.351Z,3.19
2024-02-14T22:54:36.169Z,2.97
2024-02-14T22:57:04.295Z,2.75
2024-02-14T22:59:31.276Z,2.47
2024-02-14T23:01:57.993Z,2.67
2024-02-14T23:04:24.783Z,2.68
2024-02-14T23:06:51.780Z,2.73
2024-02-14T23:09:18.683Z,2.77
2024-02-14T23:11:45.357Z,2.97
2024-02-14T23:14:12.137Z,2.93
2024-02-14T23:16:39.043Z,2.77
2024-02-14T23:19:06.244Z,2.86
2024-02-14T23:21:33.155Z,2.70
2024-02-14T23:23:59.909Z,2.47
2024-02-14T23:26:26.657Z,2.58
2024-02-14T23:28:53.367Z,2.74
2024-02-14T23:31:21.772Z,2.72
2024-02-14T23:33:48.976Z,2.62
2024-02-14T23:36:16.789Z,2.65
2024-02-14T23:38:46.653Z,2.99
2024-02-14T23:41:13.464Z,2.96
2024-02-14T23:43:40.366Z,3.03
2024-02-14T23:46:07.292Z,2.98
2024-02-14T23:48:34.779Z,2.94
2024-02-14T23:51:01.858Z,3.02
2024-02-14T23:53:28.805Z,2.97
2024-02-14T23:55:57.770Z,3.03
2024-02-14T23:58:25.651Z,3.06
